Time;durP1;ratioP1;P1;durP2;ratioP2;P2;SDS_P1;SDS_P2;PMS_P1;PMS_P2;Temp;Humidity;BMP_temperature;BMP_pressure;BME280_temperature;BME280_humidity;BME280_pressure;Samples;Min_cycle;Max_cycle;Signal;HPM_P1;HPM_P2
2022/07/27 00:00:19;;;;;;;;;4.00;3.00;;;;;20.88;52.42;101464.34;5015844;28;45424;-65
2022/07/27 00:02:47;;;;;;;;;4.33;2.33;;;;;20.77;52.37;101435.13;5017433;28;46659;-64
2022/07/27 00:05:12;;;;;;;;;3.33;3.00;;;;;20.72;52.18;101418.66;5017251;28;45280;-65
2022/07/27 00:07:38;;;;;;;;;4.00;4.00;;;;;20.79;51.83;101433.06;5020469;28;45368;-65
2022/07/27 00:10:04;;;;;;;;;3.00;3.00;;;;;20.87;52.44;101443.75;5020520;28;45471;-65
2022/07/27 00:12:29;;;;;;;;;4.00;4.00;;;;;20.89;52.46;101447.09;5020576;28;45238;-65
2022/07/27 00:14:57;;;;;;;;;2.33;2.33;;;;;20.91;52.27;101450.44;5021030;28;45389;-66
2022/07/27 00:17:23;;;;;;;;;3.33;2.00;;;;;20.97;52.19;101451.50;5020228;28;46541;-65
2022/07/27 00:19:49;;;;;;;;;2.00;2.00;;;;;21.00;52.24;101443.00;5020322;28;45308;-65
2022/07/27 00:22:15;;;;;;;;;4.00;3.33;;;;;20.98;52.35;101444.22;5020578;28;45359;-65
2022/07/27 00:24:40;;;;;;;;;4.00;4.00;;;;;20.95;52.72;101445.47;5020608;28;45470;-66
2022/07/27 00:27:07;;;;;;;;;2.33;1.00;;;;;20.87;52.99;101441.03;5020289;28;46715;-66
2022/07/27 00:29:32;;;;;;;;;2.67;2.33;;;;;20.83;52.92;101438.94;5020133;28;45592;-66
2022/07/27 00:31:58;;;;;;;;;4.00;4.00;;;;;20.81;53.37;101440.97;5020237;28;45481;-65
2022/07/27 00:34:23;;;;;;;;;5.00;4.00;;;;;20.70;53.84;101442.34;5020330;28;45221;-65
2022/07/27 00:36:48;;;;;;;;;4.00;3.00;;;;;20.63;54.30;101441.44;5020300;28;46670;-65
2022/07/27 00:39:14;;;;;;;;;5.33;5.00;;;;;20.03;54.59;101356.25;5019879;28;45305;-65
2022/07/27 00:41:39;;;;;;;;;5.00;3.33;;;;;20.54;54.42;101437.19;5018536;28;45300;-65
2022/07/27 00:44:05;;;;;;;;;4.00;4.00;;;;;20.50;54.78;101442.13;5020176;28;45349;-64
2022/07/27 00:46:31;;;;;;;;;3.33;3.33;;;;;20.38;54.70;101432.81;5019693;28;46347;-65
2022/07/27 00:48:57;;;;;;;;;4.33;4.00;;;;;20.39;55.10;101442.59;5019554;28;45484;-64
2022/07/27 00:51:24;;;;;;;;;5.00;4.00;;;;;20.35;55.51;101444.84;5019842;28;45522;-66
2022/07/27 00:53:52;;;;;;;;;4.00;4.00;;;;;20.28;55.19;101433.16;5035421;28;45447;-64
2022/07/27 00:56:17;;;;;;;;;7.67;3.33;;;;;20.23;55.42;101413.16;5019476;28;47386;-66
2022/07/27 00:58:47;;;;;;;;;5.00;5.00;;;;;20.05;55.17;101382.03;5019873;28;45321;-65
2022/07/27 01:01:14;;;;;;;;;5.00;4.00;;;;;19.87;55.07;101342.97;5019594;28;45360;-66
2022/07/27 01:03:39;;;;;;;;;5.00;5.00;;;;;20.30;55.77;101430.25;5019914;28;45367;-65
2022/07/27 01:06:05;;;;;;;;;6.00;5.00;;;;;20.11;55.86;101423.59;5019490;28;46642;-64
2022/07/27 01:08:31;;;;;;;;;5.00;3.33;;;;;20.20;55.89;101435.94;5019494;28;45348;-65
2022/07/27 01:10:57;;;;;;;;;3.00;3.00;;;;;20.05;55.72;101400.06;5019999;28;45316;-66
2022/07/27 01:13:25;;;;;;;;;5.00;5.00;;;;;20.19;56.29;101433.44;5035161;28;45575;-65
2022/07/27 01:15:51;;;;;;;;;4.00;4.00;;;;;20.08;56.81;101432.09;5019371;28;45852;-64
2022/07/27 01:18:37;;;;;;;;;3.00;3.00;;;;;19.92;57.16;101430.44;5018597;28;45562;-65
2022/07/27 01:21:05;;;;;;;;;3.33;3.33;;;;;19.89;56.94;101429.97;5017892;28;45277;-65
2022/07/27 01:23:31;;;;;;;;;3.67;3.67;;;;;19.77;57.80;101424.22;5034772;28;45298;-65
2022/07/27 01:25:57;;;;;;;;;3.67;3.67;;;;;19.66;58.08;101425.53;5034591;28;46365;-66
2022/07/27 01:28:23;;;;;;;;;3.33;2.33;;;;;19.48;58.38;101406.16;5019257;28;45356;-65
2022/07/27 01:30:48;;;;;;;;;3.67;3.67;;;;;19.59;58.10;101418.34;5017982;28;45336;-65
2022/07/27 01:33:14;;;;;;;;;4.00;3.00;;;;;19.57;58.35;101413.16;5019513;28;45454;-65
2022/07/27 01:35:39;;;;;;;;;6.33;4.00;;;;;19.56;58.37;101416.03;5018826;28;46194;-65
2022/07/27 01:38:11;;;;;;;;;5.00;5.00;;;;;19.52;58.09;101410.16;5019224;28;45360;-65
2022/07/27 01:40:38;;;;;;;;;4.67;4.67;;;;;19.53;58.40;101411.81;5019333;28;45311;-65
2022/07/27 01:43:04;;;;;;;;;5.33;3.67;;;;;19.12;58.15;101347.56;5019215;28;45339;-65
2022/07/27 01:45:30;;;;;;;;;4.00;4.00;;;;;19.42;58.30;101393.41;5018977;28;46063;-68
2022/07/27 01:47:55;;;;;;;;;6.00;4.00;;;;;19.58;57.94;101404.03;5018757;28;45531;-64
2022/07/27 01:50:21;;;;;;;;;4.33;4.33;;;;;19.71;57.85;101415.00;5019116;28;45180;-65
2022/07/27 01:52:47;;;;;;;;;6.00;4.00;;;;;19.58;57.80;101389.72;5018949;28;45353;-65
2022/07/27 01:55:13;;;;;;;;;4.33;3.00;;;;;19.43;57.66;101371.66;5018671;28;46547;-65
2022/07/27 01:57:38;;;;;;;;;5.00;4.00;;;;;19.74;57.65;101420.03;5034235;28;45659;-65
2022/07/27 02:00:07;;;;;;;;;2.33;2.33;;;;;19.64;58.05;101411.41;5019021;28;45306;-66
2022/07/27 02:02:32;;;;;;;;;5.00;5.00;;;;;18.88;58.44;101306.59;5019238;28;45352;-65
2022/07/27 02:04:58;;;;;;;;;5.00;5.00;;;;;19.32;58.82;101390.16;5018617;28;46555;-64
2022/07/27 02:07:23;;;;;;;;;5.00;5.00;;;;;19.33;58.92;101402.63;5018575;28;45244;-65
2022/07/27 02:09:48;;;;;;;;;4.00;4.00;;;;;19.28;59.06;101391.56;5018798;28;45254;-65
2022/07/27 02:15:01;;;;;;;;;4.67;3.67;;;;;19.35;58.65;101392.47;5018455;28;45292;-65
2022/07/27 02:17:26;;;;;;;;;4.67;4.67;;;;;19.43;58.58;101401.34;5033609;28;45398;-65
2022/07/27 02:19:51;;;;;;;;;4.67;4.67;;;;;19.41;58.76;101407.91;5018687;28;45221;-65
2022/07/27 02:22:17;;;;;;;;;4.00;4.00;;;;;19.25;58.80;101382.00;5018932;28;45394;-66
2022/07/27 02:24:42;;;;;;;;;2.33;2.33;;;;;19.46;58.36;101400.13;5018393;28;45401;-65
2022/07/27 02:27:08;;;;;;;;;5.00;5.00;;;;;19.50;58.38;101412.19;5018477;28;45224;-65
2022/07/27 02:29:33;;;;;;;;;5.00;5.00;;;;;19.51;58.38;101408.47;5032242;28;45374;-66
2022/07/27 02:31:59;;;;;;;;;3.00;3.00;;;;;19.27;59.22;101389.88;5018740;28;45387;-69
2022/07/27 02:34:24;;;;;;;;;2.67;2.67;;;;;19.17;59.15;101390.16;5018084;28;45926;-66
2022/07/27 02:36:49;;;;;;;;;5.00;4.00;;;;;19.31;59.19;101407.38;5033334;28;45436;-66
2022/07/27 02:39:15;;;;;;;;;3.67;3.67;;;;;19.28;59.07;101399.66;5018259;28;45387;-65
2022/07/27 02:41:40;;;;;;;;;4.67;3.00;;;;;19.14;59.19;101404.00;5018524;28;45274;-65
2022/07/27 02:44:05;;;;;;;;;4.33;3.00;;;;;18.83;59.85;101388.81;5016268;28;47992;-64
2022/07/27 02:46:31;;;;;;;;;3.00;3.00;;;;;18.83;60.39;101417.59;5018069;28;45265;-65
2022/07/27 02:48:56;;;;;;;;;4.67;4.00;;;;;18.82;60.24;101406.00;5018048;28;45470;-64
2022/07/27 02:51:21;;;;;;;;;6.00;5.00;;;;;18.78;60.30;101407.34;5018266;28;45311;-65
2022/07/27 02:53:47;;;;;;;;;3.00;3.00;;;;;18.74;60.54;101406.03;5016454;28;47587;-64
2022/07/27 02:56:13;;;;;;;;;5.00;4.00;;;;;18.73;60.31;101408.91;5017972;28;45253;-66
2022/07/27 02:58:38;;;;;;;;;5.00;5.00;;;;;18.78;60.36;101401.97;5016761;28;45304;-64
2022/07/27 03:01:04;;;;;;;;;2.33;2.33;;;;;18.32;60.08;101320.34;5018253;28;45436;-65
2022/07/27 03:03:30;;;;;;;;;6.00;5.00;;;;;18.87;59.81;101394.66;5017562;28;46663;-65
2022/07/27 03:05:55;;;;;;;;;6.00;4.00;;;;;18.92;59.74;101413.81;5017373;28;45426;-65
2022/07/27 03:08:21;;;;;;;;;2.67;2.67;;;;;18.89;59.58;101400.69;5017783;28;45923;-64
2022/07/27 03:10:46;;;;;;;;;5.00;4.00;;;;;18.88;59.66;101395.50;5033193;28;45479;-65
2022/07/27 03:13:11;;;;;;;;;3.33;3.00;;;;;18.88;59.76;101401.72;5032741;28;47362;-65
2022/07/27 03:15:37;;;;;;;;;7.33;5.00;;;;;18.75;59.88;101402.31;5016168;28;45487;-64
2022/07/27 03:18:02;;;;;;;;;5.00;5.00;;;;;18.81;59.84;101398.06;5017609;28;45778;-65
2022/07/27 03:20:28;;;;;;;;;4.67;4.67;;;;;18.70;60.19;101398.50;5017670;28;45430;-64
2022/07/27 03:22:53;;;;;;;;;5.67;4.67;;;;;18.49;60.42;101386.53;5017236;28;46354;-64
2022/07/27 03:25:19;;;;;;;;;3.33;3.33;;;;;18.53;60.59;101395.91;5017354;28;45436;-64
2022/07/27 03:27:44;;;;;;;;;5.67;5.67;;;;;18.42;60.53;101373.94;5017658;28;45356;-65
2022/07/27 03:30:10;;;;;;;;;5.67;5.67;;;;;18.54;60.40;101400.28;5033053;28;45623;-65
2022/07/27 03:32:36;;;;;;;;;5.67;4.00;;;;;18.44;60.63;101397.00;5016079;28;48542;-65
2022/07/27 03:35:01;;;;;;;;;5.33;4.00;;;;;18.38;60.65;101400.38;5017224;28;45425;-65
2022/07/27 03:37:26;;;;;;;;;4.00;4.00;;;;;18.39;60.68;101407.44;5017250;28;45291;-65
2022/07/27 03:39:52;;;;;;;;;5.00;5.00;;;;;18.43;60.49;101410.66;5016201;28;45557;-66
2022/07/27 03:42:17;;;;;;;;;6.00;5.00;;;;;18.39;60.75;101391.28;5016579;28;45430;-65
2022/07/27 03:44:42;;;;;;;;;5.00;3.67;;;;;18.43;60.37;101408.78;5017016;28;45303;-65
2022/07/27 03:47:08;;;;;;;;;5.00;5.00;;;;;18.42;60.58;101396.34;5017116;28;45244;-64
2022/07/27 03:49:33;;;;;;;;;5.00;3.67;;;;;18.17;60.87;101386.75;5017209;28;45492;-65
2022/07/27 03:51:59;;;;;;;;;7.33;4.33;;;;;18.10;60.80;101377.72;5032459;28;46523;-65
2022/07/27 03:54:25;;;;;;;;;5.00;4.00;;;;;18.21;60.82;101398.81;5017088;28;45198;-65
2022/07/27 03:56:50;;;;;;;;;6.33;6.33;;;;;17.99;61.07;101378.94;5017230;28;45253;-67
2022/07/27 03:59:16;;;;;;;;;5.00;4.33;;;;;17.89;61.14;101365.72;5017029;28;45462;-65
2022/07/27 04:01:41;;;;;;;;;4.00;4.00;;;;;18.20;60.88;101413.28;5017015;28;45505;-65
2022/07/27 04:04:06;;;;;;;;;3.67;3.67;;;;;18.24;60.75;101401.19;5016545;28;45455;-65
2022/07/27 04:06:32;;;;;;;;;5.00;4.00;;;;;18.15;60.70;101378.00;5032460;28;45197;-65
2022/07/27 04:08:57;;;;;;;;;5.33;4.00;;;;;18.04;60.32;101379.28;5032388;28;45531;-65
2022/07/27 04:11:22;;;;;;;;;3.33;3.00;;;;;18.20;60.55;101400.69;5016677;28;45952;-65
2022/07/27 04:13:49;;;;;;;;;6.00;6.00;;;;;18.06;60.48;101373.72;5015341;28;45341;-65
2022/07/27 04:16:14;;;;;;;;;8.33;5.00;;;;;18.12;60.45;101411.50;5016817;28;45403;-65
2022/07/27 04:18:39;;;;;;;;;3.00;3.00;;;;;18.06;61.04;101406.84;5016673;28;45573;-65
2022/07/27 04:21:05;;;;;;;;;3.50;3.50;;;;;18.04;60.49;101391.88;5016506;28;47953;-65
2022/07/27 04:23:31;;;;;;;;;6.00;4.00;;;;;18.03;60.54;101400.97;5016546;28;45450;-64
2022/07/27 04:25:57;;;;;;;;;4.33;3.00;;;;;18.03;60.61;101387.53;5015515;28;45456;-65
2022/07/27 04:28:22;;;;;;;;;4.67;4.67;;;;;18.09;60.24;101401.09;5032053;28;45439;-65
2022/07/27 04:30:48;;;;;;;;;3.67;3.33;;;;;18.06;59.93;101393.38;5016667;28;45366;-65
2022/07/27 04:33:14;;;;;;;;;10.33;4.67;;;;;17.89;60.84;101408.78;5016290;28;45310;-65
2022/07/27 04:35:39;;;;;;;;;3.67;3.67;;;;;17.91;60.94;101397.81;5016653;28;45367;-65
2022/07/27 04:38:04;;;;;;;;;4.00;4.00;;;;;17.91;60.93;101406.75;5015018;28;45460;-66
2022/07/27 04:40:31;;;;;;;;;2.33;2.33;;;;;17.78;60.72;101393.00;5016496;28;45549;-64
2022/07/27 04:43:00;;;;;;;;;5.00;5.00;;;;;17.77;60.67;101403.94;5016317;28;45416;-65
2022/07/27 04:45:25;;;;;;;;;5.00;4.00;;;;;17.82;60.91;101410.50;5031428;28;45419;-66
2022/07/27 04:47:51;;;;;;;;;6.00;4.00;;;;;17.74;60.67;101402.44;5015078;28;45532;-64
2022/07/27 04:50:16;;;;;;;;;3.00;3.00;;;;;17.72;60.31;101388.34;5016343;28;45711;-65
2022/07/27 04:52:42;;;;;;;;;3.67;3.67;;;;;17.37;60.00;101308.13;5016889;28;45407;-66
2022/07/27 04:55:07;;;;;;;;;7.33;6.00;;;;;17.95;59.90;101399.16;5034859;28;45589;-65
2022/07/27 04:57:33;;;;;;;;;6.33;4.67;;;;;18.12;59.34;101410.66;5018398;28;45568;-64
2022/07/27 04:59:58;;;;;;;;;3.00;2.00;;;;;18.14;58.90;101400.56;5019485;28;45955;-65
2022/07/27 05:02:25;;;;;;;;;3.00;3.00;;;;;18.15;58.93;101399.53;5019466;28;45490;-64
2022/07/27 05:04:50;;;;;;;;;1.67;1.67;;;;;18.01;59.25;101405.66;5018030;28;45314;-66
2022/07/27 05:07:16;;;;;;;;;4.00;4.00;;;;;17.92;58.95;101394.97;5019855;28;45502;-64
2022/07/27 05:09:41;;;;;;;;;3.00;3.00;;;;;18.06;58.59;101408.69;5019323;28;46076;-65
2022/07/27 05:12:07;;;;;;;;;1.67;1.67;;;;;18.06;58.44;101404.16;5019319;28;45241;-64
2022/07/27 05:14:32;;;;;;;;;4.00;3.00;;;;;18.15;58.17;101405.75;5019371;28;45459;-65
2022/07/27 05:16:58;;;;;;;;;3.00;3.00;;;;;18.02;57.47;101378.63;5019520;28;45414;-65
2022/07/27 05:19:23;;;;;;;;;4.00;3.00;;;;;18.20;57.80;101405.22;5019142;28;46327;-65
2022/07/27 05:21:49;;;;;;;;;4.00;4.00;;;;;18.32;57.23;101413.75;5019246;28;45524;-65
2022/07/27 05:24:14;;;;;;;;;4.00;4.00;;;;;18.04;57.82;101400.78;5019085;28;45269;-66
2022/07/27 05:26:40;;;;;;;;;3.00;3.00;;;;;18.17;57.55;101419.03;5034814;28;45346;-65
2022/07/27 05:29:05;;;;;;;;;5.67;3.00;;;;;18.24;57.60;101417.34;5018863;28;45688;-65
2022/07/27 05:31:31;;;;;;;;;3.33;3.33;;;;;18.21;57.14;101429.25;5018951;28;45384;-65
2022/07/27 05:33:56;;;;;;;;;3.33;2.00;;;;;17.96;57.60;101408.06;5019303;28;45410;-65
2022/07/27 05:36:22;;;;;;;;;3.00;3.00;;;;;18.07;57.67;101419.28;5019258;28;45501;-66
2022/07/27 05:38:47;;;;;;;;;6.00;4.67;;;;;17.96;57.17;101370.38;5018925;28;45737;-66
2022/07/27 05:41:13;;;;;;;;;6.33;4.00;;;;;18.34;57.07;101431.38;5018805;28;45526;-66
2022/07/27 05:43:38;;;;;;;;;7.33;4.00;;;;;18.18;56.98;101416.16;5034036;28;45369;-67
2022/07/27 05:46:04;;;;;;;;;5.00;5.00;;;;;18.16;57.01;101411.97;5034414;28;45406;-66
2022/07/27 05:48:29;;;;;;;;;0.00;0.00;;;;;18.24;56.90;101430.78;5018532;28;46480;-66
2022/07/27 05:50:54;;;;;;;;;4.33;3.00;;;;;18.23;56.77;101413.81;5018410;28;45327;-66
2022/07/27 05:53:20;;;;;;;;;4.67;4.67;;;;;18.53;56.28;101432.78;5018499;28;45245;-65
2022/07/27 05:55:45;;;;;;;;;4.00;4.00;;;;;17.80;56.19;101323.72;5018725;28;45130;-65
2022/07/27 05:58:11;;;;;;;;;4.00;4.00;;;;;18.49;55.93;101439.53;5018392;28;45384;-66
2022/07/27 06:00:36;;;;;;;;;4.33;4.33;;;;;18.38;56.01;101421.09;5018315;28;45245;-66
2022/07/27 06:03:02;;;;;;;;;5.33;4.00;;;;;18.40;55.65;101425.28;5018528;28;45304;-66
2022/07/27 06:05:28;;;;;;;;;2.33;2.33;;;;;18.47;55.94;101431.66;5018665;28;45590;-66
2022/07/27 06:07:59;;;;;;;;;5.33;4.00;;;;;18.57;55.30;101430.56;5018426;28;45356;-65
2022/07/27 06:10:31;;;;;;;;;5.00;5.00;;;;;18.62;55.24;101412.88;5018553;28;45334;-64
2022/07/27 06:12:57;;;;;;;;;5.67;4.67;;;;;18.87;54.76;101437.78;5033862;28;45394;-64
2022/07/27 06:15:23;;;;;;;;;3.00;1.67;;;;;18.98;54.28;101445.41;5018358;28;45433;-66
2022/07/27 06:17:51;;;;;;;;;4.67;3.33;;;;;19.24;53.77;101439.63;5018082;28;46624;-65
2022/07/27 06:20:17;;;;;;;;;5.00;4.00;;;;;19.78;52.23;101436.69;5017979;28;45294;-66
2022/07/27 06:23:02;;;;;;;;;3.00;3.00;;;;;20.59;50.61;101445.53;5018333;28;45518;-65
2022/07/27 06:25:32;;;;;;;;;6.00;4.00;;;;;21.51;47.12;101435.50;5018131;28;45634;-65
2022/07/27 06:27:58;;;;;;;;;3.67;3.67;;;;;22.21;45.13;101428.13;5017932;28;45821;-66
2022/07/27 06:30:23;;;;;;;;;7.67;4.67;;;;;22.86;43.83;101442.06;5017838;28;45525;-66
2022/07/27 06:32:49;;;;;;;;;5.00;4.67;;;;;23.22;42.33;101423.47;5016719;28;45277;-66
2022/07/27 06:35:14;;;;;;;;;4.00;2.00;;;;;23.88;41.30;101436.91;5018169;28;45257;-66
2022/07/27 06:37:42;;;;;;;;;2.67;2.67;;;;;24.29;40.23;101452.00;5016445;28;47320;-66
2022/07/27 06:40:12;;;;;;;;;4.67;4.00;;;;;24.90;39.08;101435.06;5017653;28;45389;-66
2022/07/27 06:42:39;;;;;;;;;3.00;2.00;;;;;25.07;38.89;101446.28;5017593;28;45299;-66
2022/07/27 06:45:05;;;;;;;;;5.00;4.00;;;;;25.34;38.04;101422.34;5017902;28;45524;-66
2022/07/27 06:47:30;;;;;;;;;3.67;3.67;;;;;25.65;37.32;101443.19;5032261;28;48571;-66
2022/07/27 06:49:56;;;;;;;;;3.67;3.00;;;;;26.07;36.76;101439.56;5017159;28;45554;-66
2022/07/27 06:52:21;;;;;;;;;2.67;2.67;;;;;26.55;36.39;101438.69;5017656;28;45235;-65
2022/07/27 06:54:46;;;;;;;;;4.00;4.00;;;;;26.90;34.99;101427.03;5017896;28;45213;-66
2022/07/27 06:57:12;;;;;;;;;3.33;3.00;;;;;27.14;34.67;101430.63;5017380;28;45526;-67
2022/07/27 06:59:38;;;;;;;;;5.67;4.67;;;;;27.57;34.17;101417.41;5017655;28;45277;-65
2022/07/27 07:02:03;;;;;;;;;5.00;5.00;;;;;28.13;32.81;101437.72;5017912;28;45304;-66
2022/07/27 07:04:28;;;;;;;;;3.33;3.33;;;;;28.32;32.80;101445.78;5017726;28;45550;-66
2022/07/27 07:06:54;;;;;;;;;3.33;3.00;;;;;28.34;32.94;101440.88;5032817;28;46383;-68
2022/07/27 07:09:20;;;;;;;;;6.33;5.33;;;;;28.05;32.03;101366.22;5015867;28;45524;-66
2022/07/27 07:11:46;;;;;;;;;4.00;4.00;;;;;29.05;31.92;101436.69;5017521;28;45435;-66
2022/07/27 07:14:11;;;;;;;;;5.67;5.67;;;;;29.13;31.10;101391.59;5017569;28;45300;-67
2022/07/27 07:16:37;;;;;;;;;5.67;4.67;;;;;29.88;31.34;101443.91;5016328;28;45846;-66
2022/07/27 07:19:02;;;;;;;;;5.00;3.00;;;;;30.39;29.24;101439.00;5017173;28;45484;-67
2022/07/27 07:21:27;;;;;;;;;5.00;5.00;;;;;30.30;29.54;101352.78;5017542;28;46132;-68
2022/07/27 07:23:53;;;;;;;;;7.00;5.67;;;;;31.14;28.87;101440.78;5032590;28;45317;-67
2022/07/27 07:26:18;;;;;;;;;5.67;5.67;;;;;31.31;29.11;101442.56;5017052;28;46064;-65
2022/07/27 07:28:44;;;;;;;;;7.67;7.33;;;;;30.76;28.31;101432.78;5015978;28;45812;-67
2022/07/27 07:31:09;;;;;;;;;5.33;4.33;;;;;30.70;28.59;101379.78;5017184;28;45329;-66
2022/07/27 07:33:34;;;;;;;;;7.33;5.33;;;;;31.20;28.24;101429.84;5015815;28;45480;-66
2022/07/27 07:36:01;;;;;;;;;8.00;6.00;;;;;31.57;27.36;101457.28;5016865;28;46238;-67
2022/07/27 07:38:27;;;;;;;;;6.67;6.67;;;;;31.98;27.67;101448.13;5032154;28;45295;-67
2022/07/27 07:40:52;;;;;;;;;5.00;5.00;;;;;32.33;26.38;101408.91;5015522;28;45440;-66
2022/07/27 07:43:17;;;;;;;;;9.00;7.67;;;;;32.93;26.42;101450.56;5017403;28;45462;-67
2022/07/27 07:45:43;;;;;;;;;4.33;3.33;;;;;32.81;25.79;101376.47;5016597;28;46294;-66
2022/07/27 07:48:10;;;;;;;;;5.33;4.00;;;;;33.86;25.47;101441.84;5031374;28;45256;-66
2022/07/27 07:50:35;;;;;;;;;6.00;4.67;;;;;34.12;24.25;101434.25;5016994;28;45411;-66
2022/07/27 07:53:01;;;;;;;;;4.67;4.67;;;;;34.02;24.89;101440.63;5015649;28;45484;-67
2022/07/27 07:55:27;;;;;;;;;6.00;6.00;;;;;34.06;24.41;101427.94;5016807;28;45820;-66
2022/07/27 07:57:53;;;;;;;;;7.33;6.33;;;;;33.57;24.74;101430.59;5016751;28;45435;-67
2022/07/27 08:00:19;;;;;;;;;6.00;6.00;;;;;33.93;24.55;101436.84;5015327;28;45615;-67
2022/07/27 08:02:46;;;;;;;;;8.33;7.00;;;;;33.92;24.58;101435.19;5016951;28;45189;-67
2022/07/27 08:05:12;;;;;;;;;6.67;6.67;;;;;33.65;24.79;101431.97;5016333;28;46651;-66
2022/07/27 08:07:37;;;;;;;;;5.33;5.33;;;;;33.71;24.52;101433.59;5031896;28;45538;-66
2022/07/27 08:10:05;;;;;;;;;4.33;4.33;;;;;33.92;24.15;101439.88;5016630;28;45518;-67
2022/07/27 08:12:30;;;;;;;;;9.00;6.67;;;;;33.63;24.86;101439.69;5016691;28;45275;-65
2022/07/27 08:14:56;;;;;;;;;7.00;7.00;;;;;32.94;25.87;101436.50;5016259;28;45680;-67
2022/07/27 08:17:21;;;;;;;;;8.00;5.33;;;;;33.03;25.26;101433.19;5016365;28;45383;-66
2022/07/27 08:19:46;;;;;;;;;7.00;7.00;;;;;33.48;25.04;101438.66;5016529;28;45488;-66
2022/07/27 08:22:12;;;;;;;;;8.00;7.00;;;;;33.31;25.07;101416.06;5015312;28;45432;-65
2022/07/27 08:24:37;;;;;;;;;7.00;6.00;;;;;33.28;25.02;101369.78;5016450;28;47047;-66
2022/07/27 08:27:02;;;;;;;;;14.00;12.00;;;;;33.76;24.46;101426.13;5017524;28;45653;-67
2022/07/27 08:29:28;;;;;;;;;8.00;8.00;;;;;33.93;24.19;101431.31;5035335;28;45241;-68
2022/07/27 08:31:53;;;;;;;;;6.00;5.00;;;;;34.17;23.89;101421.25;5020160;28;45478;-67
2022/07/27 08:34:18;;;;;;;;;7.67;7.00;;;;;34.21;23.62;101398.59;5018356;28;48289;-67
2022/07/27 08:36:44;;;;;;;;;8.00;7.00;;;;;34.04;24.27;101429.31;5019978;28;45259;-66
2022/07/27 08:39:09;;;;;;;;;6.00;6.00;;;;;34.02;24.32;101417.75;5034852;28;45470;-66
2022/07/27 08:41:41;;;;;;;;;9.00;8.00;;;;;33.99;24.26;101427.41;5019706;28;45632;-66
2022/07/27 08:44:10;;;;;;;;;9.33;6.00;;;;;34.36;23.70;101417.84;5019464;28;45962;-65
2022/07/27 08:46:37;;;;;;;;;3.00;3.00;;;;;34.44;23.72;101408.94;5019593;28;45331;-68
2022/07/27 08:49:03;;;;;;;;;8.33;8.33;;;;;34.81;23.26;101421.34;5019702;28;45530;-67
2022/07/27 08:51:28;;;;;;;;;10.00;8.33;;;;;34.55;23.42;101427.09;5019466;28;45225;-67
2022/07/27 08:53:55;;;;;;;;;10.50;7.50;;;;;34.01;23.46;101424.38;5019500;28;46024;-67
2022/07/27 08:56:21;;;;;;;;;8.33;7.00;;;;;33.25;24.82;101434.53;5019328;28;45359;-67
2022/07/27 08:58:46;;;;;;;;;8.33;8.00;;;;;33.14;24.38;101396.25;5034736;28;45472;-67
2022/07/27 09:01:12;;;;;;;;;6.00;6.00;;;;;34.03;24.31;101420.22;5019739;28;45469;-66
2022/07/27 09:03:37;;;;;;;;;12.00;7.00;;;;;33.33;23.82;101371.69;5019164;28;46545;-65
2022/07/27 09:06:03;;;;;;;;;8.00;7.00;;;;;33.55;24.28;101422.63;5019164;28;45374;-66
2022/07/27 09:08:30;;;;;;;;;4.33;4.33;;;;;33.80;24.13;101427.19;5017868;28;45507;-67
2022/07/27 09:10:58;;;;;;;;;6.00;6.00;;;;;34.18;23.72;101422.06;5019297;28;45517;-66
2022/07/27 09:13:30;;;;;;;;;6.00;6.00;;;;;34.10;23.84;101429.03;5018941;28;45963;-67
2022/07/27 09:15:58;;;;;;;;;7.33;6.33;;;;;34.52;23.11;101422.13;5019261;28;45291;-67
2022/07/27 09:18:25;;;;;;;;;6.67;6.67;;;;;34.64;21.99;101391.38;5019670;28;45284;-66
2022/07/27 09:21:10;;;;;;;;;5.33;5.33;;;;;35.06;22.62;101426.69;5019369;28;45475;-66
2022/07/27 09:23:39;;;;;;;;;5.00;5.00;;;;;35.26;21.71;101414.59;5018938;28;46559;-67
2022/07/27 09:26:12;;;;;;;;;5.00;4.67;;;;;35.36;21.34;101426.38;5018921;28;45317;-66
2022/07/27 09:28:38;;;;;;;;;5.33;5.33;;;;;34.69;22.15;101361.78;5018891;28;45467;-67
2022/07/27 09:31:08;;;;;;;;;5.00;4.00;;;;;35.28;21.79;101412.34;5019163;28;45403;-66
2022/07/27 09:33:42;;;;;;;;;5.00;5.00;;;;;36.92;19.52;101418.09;5018557;28;46240;-67
2022/07/27 09:36:08;;;;;;;;;4.00;4.00;;;;;38.20;18.89;101419.94;5018816;28;45252;-67
2022/07/27 09:38:33;;;;;;;;;5.33;4.00;;;;;39.28;17.66;101398.59;5033510;28;45454;-67
2022/07/27 09:41:00;;;;;;;;;4.67;3.67;;;;;40.18;16.92;101394.22;5018876;28;45419;-67
2022/07/27 09:43:27;;;;;;;;;3.67;3.67;;;;;40.76;15.72;101286.06;5018612;28;45780;-67
2022/07/27 09:45:53;;;;;;;;;5.67;5.67;;;;;42.49;15.28;101420.63;5018843;28;45363;-65
2022/07/27 09:48:20;;;;;;;;;4.00;4.00;;;;;43.47;14.30;101412.44;5033719;28;45265;-67
2022/07/27 09:50:59;;;;;;;;;3.33;3.00;;;;;43.51;13.40;101346.16;5018754;28;45219;-68
2022/07/27 09:53:28;;;;;;;;;6.67;5.67;;;;;42.54;13.95;101397.22;5018443;28;46383;-67
2022/07/27 09:56:01;;;;;;;;;5.00;4.33;;;;;40.76;15.28;101403.16;5018412;28;45305;-66
2022/07/27 09:58:55;;;;;;;;;3.67;3.67;;;;;40.72;15.40;101406.63;5017333;28;45484;-68
2022/07/27 10:01:25;;;;;;;;;4.00;3.00;;;;;41.52;14.97;101406.03;5033962;28;45395;-66
2022/07/27 10:03:53;;;;;;;;;5.33;4.33;;;;;41.87;14.77;101392.69;5018307;28;45516;-67
2022/07/27 10:06:19;;;;;;;;;4.67;4.67;;;;;41.43;14.62;101406.06;5018153;28;45225;-67
2022/07/27 10:08:47;;;;;;;;;7.00;6.33;;;;;40.97;15.62;101395.75;5018331;28;45293;-68
2022/07/27 10:11:14;;;;;;;;;4.67;4.67;;;;;39.65;16.65;101336.84;5018476;28;45463;-68
2022/07/27 10:13:40;;;;;;;;;5.67;4.67;;;;;38.28;17.21;101405.31;5017959;28;45733;-67
2022/07/27 10:16:10;;;;;;;;;5.33;5.33;;;;;36.78;18.89;101401.38;5018060;28;45333;-66
2022/07/27 10:19:04;;;;;;;;;4.00;4.00;;;;;34.84;20.04;101395.88;5018656;28;45435;-67
2022/07/27 10:21:30;;;;;;;;;3.33;3.33;;;;;33.72;20.93;101414.00;5015562;28;45716;-66
2022/07/27 10:24:01;;;;;;;;;5.00;5.00;;;;;32.76;21.75;101390.22;5018074;28;47523;-68
2022/07/27 10:26:31;;;;;;;;;5.00;5.00;;;;;32.21;23.24;101366.22;5017880;28;45198;-66
2022/07/27 10:28:58;;;;;;;;;4.33;3.00;;;;;32.25;23.35;101395.69;5018006;28;45385;-66
2022/07/27 10:31:26;;;;;;;;;4.00;4.00;;;;;31.89;23.77;101386.53;5018219;28;45313;-66
2022/07/27 10:33:54;;;;;;;;;7.67;7.00;;;;;31.41;24.58;101380.25;5018075;28;45610;-66
2022/07/27 10:36:22;;;;;;;;;7.00;6.33;;;;;31.15;25.00;101406.72;5017851;28;45269;-66
2022/07/27 10:38:55;;;;;;;;;6.00;4.00;;;;;30.61;26.03;101364.00;5017664;28;45316;-66
2022/07/27 10:41:27;;;;;;;;;4.00;4.00;;;;;30.39;26.05;101384.13;5017905;28;45368;-66
2022/07/27 10:44:17;;;;;;;;;4.33;4.33;;;;;29.99;26.82;101392.75;5015934;28;46588;-66
2022/07/27 10:46:43;;;;;;;;;6.00;5.00;;;;;29.67;26.67;101376.22;5017646;28;45557;-67
2022/07/27 10:49:25;;;;;;;;;6.33;5.33;;;;;28.43;27.73;101306.22;5017320;28;45312;-66
2022/07/27 10:51:54;;;;;;;;;5.33;5.33;;;;;28.64;28.11;101383.16;5016833;28;45422;-66
2022/07/27 10:54:26;;;;;;;;;4.33;3.33;;;;;28.53;28.50;101382.16;5017323;28;45679;-67
2022/07/27 10:56:54;;;;;;;;;5.00;5.00;;;;;28.50;29.17;101385.38;5017380;28;45351;-66
2022/07/27 10:59:38;;;;;;;;;6.00;6.00;;;;;28.59;28.35;101383.88;5017747;28;45252;-67
2022/07/27 11:02:09;;;;;;;;;5.33;5.33;;;;;28.43;27.93;101365.53;5017795;28;45331;-64
2022/07/27 11:04:48;;;;;;;;;7.67;5.67;;;;;28.33;28.60;101376.31;5017193;28;46594;-67
2022/07/27 11:07:23;;;;;;;;;4.67;4.67;;;;;28.05;29.09;101363.50;5017708;28;45617;-67
2022/07/27 11:09:51;;;;;;;;;6.00;5.00;;;;;28.06;28.88;101370.63;5017709;28;45374;-66
2022/07/27 11:12:21;;;;;;;;;5.33;5.33;;;;;28.10;29.56;101369.03;5017648;28;45527;-66
2022/07/27 11:14:51;;;;;;;;;4.67;4.67;;;;;27.70;29.70;101363.63;5017168;28;45627;-68
2022/07/27 11:17:20;;;;;;;;;5.33;5.33;;;;;27.10;30.73;101361.22;5015670;28;45593;-68
2022/07/27 11:19:52;;;;;;;;;5.33;4.00;;;;;27.05;30.59;101361.94;5017382;28;45419;-67
2022/07/27 11:22:31;;;;;;;;;5.33;4.33;;;;;26.93;30.08;101350.97;5017243;28;45369;-65
2022/07/27 11:24:56;;;;;;;;;5.33;3.00;;;;;26.93;30.19;101366.53;5015498;28;48396;-66